createdAt,value
2023-04-16T00:01:14.714Z,74.33
2023-04-16T00:03:41.358Z,73.03
2023-04-16T00:06:07.978Z,72.93
2023-04-16T00:08:35.852Z,72.32
2023-04-16T00:11:02.359Z,73.71
2023-04-16T00:13:28.781Z,73.90
2023-04-16T00:15:55.225Z,73.46
2023-04-16T00:18:21.697Z,73.85
2023-04-16T00:20:48.055Z,76.48
2023-04-16T00:23:14.429Z,76.40
2023-04-16T00:25:40.996Z,73.40
2023-04-16T00:28:08.330Z,75.05
2023-04-16T00:30:35.458Z,74.83
2023-04-16T00:33:02.937Z,75.10
2023-04-16T00:35:29.296Z,74.56
2023-04-16T00:37:55.723Z,74.61
2023-04-16T00:40:22.181Z,74.04
2023-04-16T00:42:48.532Z,74.82
2023-04-16T00:45:14.959Z,74.33
2023-04-16T00:47:41.372Z,73.96
2023-04-16T00:50:07.785Z,73.64
2023-04-16T00:52:34.195Z,73.89
2023-04-16T00:55:00.804Z,74.70
2023-04-16T00:57:27.923Z,74.35
2023-04-16T00:59:54.314Z,74.23
2023-04-16T01:02:20.800Z,74.60
2023-04-16T01:04:50.296Z,73.17
2023-04-16T01:07:16.668Z,74.79
2023-04-16T01:09:43.042Z,74.71
2023-04-16T01:12:09.776Z,75.60
2023-04-16T01:14:36.515Z,75.15
2023-04-16T01:17:03.391Z,74.96
2023-04-16T01:19:31.232Z,74.03
2023-04-16T01:21:57.620Z,74.03
2023-04-16T01:24:23.958Z,74.85
2023-04-16T01:26:50.326Z,74.89
2023-04-16T01:29:16.706Z,75.29
2023-04-16T01:31:43.301Z,74.74
2023-04-16T01:34:24.708Z,75.92
2023-04-16T01:36:51.915Z,77.62
2023-04-16T01:39:19.435Z,76.51
2023-04-16T01:41:45.865Z,79.79
2023-04-16T01:44:12.293Z,76.80
2023-04-16T01:46:38.909Z,75.45
2023-04-16T01:49:05.529Z,75.80
2023-04-16T01:51:32.256Z,80.26
2023-04-16T01:53:58.700Z,78.69
2023-04-16T01:56:25.132Z,79.29
2023-04-16T01:58:51.691Z,78.30
2023-04-16T02:01:18.986Z,80.52
2023-04-16T02:03:46.151Z,79.19
2023-04-16T02:06:12.666Z,78.15
2023-04-16T02:08:39.041Z,79.26
2023-04-16T02:11:05.459Z,78.82
2023-04-16T02:13:32.043Z,80.13
2023-04-16T02:15:58.634Z,80.13
2023-04-16T02:18:43.360Z,78.86
2023-04-16T02:21:11.299Z,80.32
2023-04-16T02:23:41.055Z,79.53
2023-04-16T02:26:07.467Z,79.20
2023-04-16T02:28:33.928Z,78.67
2023-04-16T02:31:00.589Z,80.08
2023-04-16T02:33:33.122Z,81.96
2023-04-16T02:36:02.854Z,81.95
2023-04-16T02:38:29.499Z,82.80
2023-04-16T02:40:55.906Z,83.25
2023-04-16T02:43:22.354Z,82.13
2023-04-16T02:45:48.796Z,83.67
2023-04-16T02:48:15.388Z,82.93
2023-04-16T02:50:41.772Z,82.29
2023-04-16T02:53:08.186Z,83.04
2023-04-16T02:55:34.595Z,84.25
2023-04-16T02:58:00.990Z,81.14
2023-04-16T03:00:27.465Z,82.52
2023-04-16T03:02:54.123Z,83.49
2023-04-16T03:05:20.886Z,83.69
2023-04-16T03:07:47.479Z,82.99
2023-04-16T03:10:15.049Z,82.51
2023-04-16T03:12:41.464Z,81.77
2023-04-16T03:15:07.832Z,84.39
2023-04-16T03:17:34.337Z,84.12
2023-04-16T03:20:01.026Z,84.09
2023-04-16T03:22:27.367Z,82.84
2023-04-16T03:24:53.769Z,81.81
2023-04-16T03:27:20.486Z,80.91
2023-04-16T03:29:47.828Z,82.76
2023-04-16T03:32:14.269Z,83.34
2023-04-16T03:34:41.205Z,83.18
2023-04-16T03:37:08.952Z,82.38
2023-04-16T03:39:35.508Z,81.37
2023-04-16T03:42:02.352Z,81.83
2023-04-16T03:44:28.903Z,83.47
2023-04-16T03:46:55.355Z,84.40
2023-04-16T03:49:22.350Z,84.08
2023-04-16T03:51:48.832Z,81.57
2023-04-16T03:54:15.570Z,82.45
2023-04-16T03:56:46.749Z,83.34
2023-04-16T03:59:13.207Z,82.28
2023-04-16T04:01:39.744Z,81.21
2023-04-16T04:04:06.839Z,81.78
2023-04-16T04:06:33.555Z,82.40
2023-04-16T04:09:00.012Z,80.70
2023-04-16T04:11:26.680Z,81.65
2023-04-16T04:13:53.923Z,80.61
2023-04-16T04:16:20.371Z,80.99
2023-04-16T04:18:46.897Z,80.05
2023-04-16T04:21:13.279Z,81.36
2023-04-16T04:23:41.555Z,81.06
2023-04-16T04:26:08.025Z,82.71
2023-04-16T04:28:35.113Z,82.42
2023-04-16T04:31:01.519Z,83.53
2023-04-16T04:33:30.221Z,81.81
2023-04-16T04:35:56.596Z,81.50
2023-04-16T04:38:25.388Z,82.56
2023-04-16T04:40:52.904Z,83.35
2023-04-16T04:43:20.796Z,81.99
2023-04-16T04:45:47.388Z,80.13
2023-04-16T04:48:13.854Z,81.23
2023-04-16T04:50:41.100Z,82.89
2023-04-16T04:53:10.302Z,81.10
2023-04-16T04:55:37.524Z,80.12
2023-04-16T04:58:04.568Z,80.02
2023-04-16T05:00:31.372Z,81.48
2023-04-16T05:02:57.872Z,81.12
2023-04-16T05:05:24.564Z,83.30
2023-04-16T05:07:50.986Z,83.23
2023-04-16T05:10:17.396Z,83.15
2023-04-16T05:12:43.743Z,82.90
2023-04-16T05:15:10.434Z,84.65
2023-04-16T05:17:36.861Z,83.75
2023-04-16T05:20:03.286Z,83.11
2023-04-16T05:22:29.709Z,83.46
2023-04-16T05:24:56.413Z,83.40
2023-04-16T05:27:22.802Z,83.29
2023-04-16T05:29:49.220Z,86.04
2023-04-16T05:32:15.640Z,85.01
2023-04-16T05:34:42.018Z,83.90
2023-04-16T05:37:08.337Z,83.49
2023-04-16T05:39:34.711Z,83.41
2023-04-16T05:42:01.531Z,82.59
2023-04-16T05:44:27.875Z,82.19
2023-04-16T05:46:54.228Z,83.87
2023-04-16T05:49:21.419Z,82.50
2023-04-16T05:51:49.115Z,80.53
2023-04-16T05:54:16.723Z,83.07
2023-04-16T05:56:43.120Z,84.21
2023-04-16T05:59:09.638Z,83.87
2023-04-16T06:01:36.204Z,85.51
2023-04-16T06:04:02.688Z,84.34
2023-04-16T06:06:29.202Z,83.38
2023-04-16T06:08:55.552Z,82.65
2023-04-16T06:11:22.182Z,83.60
2023-04-16T06:13:48.546Z,82.09
2023-04-16T06:16:14.931Z,82.04
2023-04-16T06:18:41.466Z,82.74
2023-04-16T06:21:07.831Z,83.01
2023-04-16T06:23:34.255Z,82.32
2023-04-16T06:26:00.802Z,84.09
2023-04-16T06:28:27.235Z,81.23
2023-04-16T06:30:53.624Z,84.72
2023-04-16T06:33:19.985Z,83.53
2023-04-16T06:35:46.370Z,83.27
2023-04-16T06:38:12.700Z,83.22
2023-04-16T06:40:39.090Z,81.26
2023-04-16T06:43:05.435Z,83.85
2023-04-16T06:45:31.800Z,82.03
2023-04-16T06:47:59.043Z,81.40
2023-04-16T06:50:26.599Z,79.65
2023-04-16T06:52:53.019Z,79.26
2023-04-16T06:55:19.373Z,77.66
2023-04-16T06:57:45.799Z,77.28
2023-04-16T07:00:12.239Z,75.65
2023-04-16T07:02:38.720Z,75.45
2023-04-16T07:05:05.278Z,76.43
2023-04-16T07:07:31.700Z,76.46
2023-04-16T07:09:58.079Z,76.99
2023-04-16T07:12:24.446Z,76.41
2023-04-16T07:14:50.965Z,75.21
2023-04-16T07:17:17.408Z,77.31
2023-04-16T07:19:43.805Z,75.90
2023-04-16T07:22:10.174Z,77.11
2023-04-16T07:24:36.596Z,76.42
2023-04-16T07:27:02.971Z,75.96
2023-04-16T07:29:29.335Z,75.90
2023-04-16T07:31:55.758Z,75.13
2023-04-16T07:34:22.160Z,74.71
2023-04-16T07:36:48.583Z,75.08
2023-04-16T07:39:14.954Z,73.52
2023-04-16T07:41:41.353Z,74.53
2023-04-16T07:44:08.097Z,74.26
2023-04-16T07:46:43.582Z,73.47
2023-04-16T07:49:13.408Z,74.01
2023-04-16T07:51:39.820Z,72.47
2023-04-16T07:54:06.184Z,71.49
2023-04-16T07:56:32.602Z,71.30
2023-04-16T07:59:07.920Z,72.89
2023-04-16T08:01:45.374Z,73.38
2023-04-16T08:04:11.981Z,74.03
2023-04-16T08:06:38.406Z,72.68
2023-04-16T08:09:04.952Z,73.47
2023-04-16T08:11:31.365Z,73.03
2023-04-16T08:13:57.763Z,72.09
2023-04-16T08:16:24.271Z,72.72
2023-04-16T08:18:50.852Z,72.14
2023-04-16T08:21:17.238Z,71.27
2023-04-16T08:23:43.561Z,72.07
2023-04-16T08:26:10.232Z,70.54
2023-04-16T08:28:36.692Z,69.31
2023-04-16T08:31:03.171Z,70.08
2023-04-16T08:33:29.644Z,71.25
2023-04-16T08:35:56.260Z,70.09
2023-04-16T08:38:22.755Z,68.78
2023-04-16T08:40:49.522Z,70.02
2023-04-16T08:43:15.947Z,69.58
2023-04-16T08:45:45.280Z,70.64
2023-04-16T08:48:11.731Z,69.52
2023-04-16T08:50:38.138Z,69.54
2023-04-16T08:53:04.975Z,68.75
2023-04-16T08:55:31.339Z,68.11
2023-04-16T08:57:57.717Z,66.01
2023-04-16T09:00:24.116Z,68.00
2023-04-16T09:02:51.574Z,68.53
2023-04-16T09:05:18.926Z,67.64
2023-04-16T09:07:45.352Z,69.31
2023-04-16T09:10:11.709Z,69.56
2023-04-16T09:12:38.079Z,69.35
2023-04-16T09:15:05.033Z,71.09
2023-04-16T09:17:31.650Z,69.05
2023-04-16T09:19:57.987Z,69.04
2023-04-16T09:22:24.351Z,69.70
2023-04-16T09:24:50.800Z,68.20
2023-04-16T09:27:17.779Z,68.06
2023-04-16T09:29:44.804Z,67.53
2023-04-16T09:32:11.350Z,67.62
2023-04-16T09:34:37.729Z,66.53
2023-04-16T09:37:04.113Z,67.78
2023-04-16T09:39:30.488Z,67.65
2023-04-16T09:41:56.893Z,66.14
2023-04-16T09:44:23.269Z,68.08
2023-04-16T09:46:51.190Z,67.76
2023-04-16T09:49:18.610Z,68.58
2023-04-16T09:51:45.021Z,68.07
2023-04-16T09:54:11.421Z,67.88
2023-04-16T09:56:37.793Z,67.52
2023-04-16T09:59:04.204Z,68.18
2023-04-16T10:01:30.616Z,67.31
2023-04-16T10:03:57.120Z,67.37
2023-04-16T10:06:23.569Z,65.50
2023-04-16T10:08:50.585Z,66.38
2023-04-16T10:11:17.076Z,66.44
2023-04-16T10:13:43.652Z,65.60
2023-04-16T10:16:10.606Z,65.35
2023-04-16T10:18:37.581Z,65.54
2023-04-16T10:21:04.603Z,65.40
2023-04-16T10:23:31.004Z,64.39
2023-04-16T10:25:58.157Z,64.44
2023-04-16T10:28:24.714Z,65.68
2023-04-16T10:30:54.181Z,62.98
2023-04-16T10:33:20.851Z,64.95
2023-04-16T10:35:55.014Z,65.01
2023-04-16T10:38:32.541Z,67.35
2023-04-16T10:40:59.104Z,65.68
2023-04-16T10:43:25.514Z,65.39
2023-04-16T10:45:51.897Z,65.65
2023-04-16T10:48:18.447Z,65.61
2023-04-16T10:50:44.874Z,65.99
2023-04-16T10:53:11.276Z,66.93
2023-04-16T10:55:37.643Z,65.75
2023-04-16T10:58:04.045Z,64.96
2023-04-16T11:00:31.065Z,63.44
2023-04-16T11:02:57.830Z,62.71
2023-04-16T11:05:24.999Z,62.67
2023-04-16T11:07:51.731Z,63.37
2023-04-16T11:10:18.445Z,62.10
2023-04-16T11:12:45.122Z,62.19
2023-04-16T11:15:11.620Z,62.19
2023-04-16T11:17:38.841Z,61.83
2023-04-16T11:20:05.224Z,61.58
2023-04-16T11:34:31.008Z,59.66
2023-04-16T11:36:57.369Z,59.77
2023-04-16T11:39:23.739Z,58.11
2023-04-16T11:41:50.434Z,59.09
2023-04-16T11:44:16.777Z,58.64
2023-04-16T11:46:43.154Z,59.33
2023-04-16T11:49:09.806Z,58.61
2023-04-16T11:51:36.416Z,59.30
2023-04-16T11:54:02.852Z,58.77
2023-04-16T11:56:29.350Z,57.50
2023-04-16T11:58:55.864Z,58.15
2023-04-16T12:01:22.238Z,56.81
2023-04-16T12:03:49.661Z,57.52
2023-04-16T12:06:16.492Z,57.64
2023-04-16T12:08:42.928Z,57.07
2023-04-16T12:11:09.484Z,55.21
2023-04-16T12:13:39.855Z,56.55
2023-04-16T12:16:06.309Z,57.25
2023-04-16T12:18:32.648Z,57.59
2023-04-16T12:20:59.037Z,56.79
2023-04-16T12:23:25.477Z,56.73
2023-04-16T12:25:52.134Z,56.72
2023-04-16T12:28:18.648Z,56.30
2023-04-16T12:30:45.357Z,56.85
2023-04-16T12:33:12.154Z,56.44
2023-04-16T12:35:38.996Z,56.51
2023-04-16T12:38:05.566Z,56.23
2023-04-16T12:40:32.060Z,56.50
2023-04-16T12:42:58.610Z,56.18
2023-04-16T12:45:25.039Z,55.92
2023-04-16T12:47:51.507Z,56.25
2023-04-16T12:50:18.457Z,57.32
2023-04-16T12:52:44.884Z,57.93
2023-04-16T12:55:11.224Z,58.18
2023-04-16T12:57:37.679Z,58.25
2023-04-16T13:00:06.619Z,58.32
2023-04-16T13:02:33.194Z,56.90
2023-04-16T13:04:59.627Z,56.45
2023-04-16T13:07:26.834Z,56.61
2023-04-16T13:09:53.222Z,56.49
2023-04-16T13:12:19.633Z,56.91
2023-04-16T13:14:46.091Z,57.38
2023-04-16T13:17:12.514Z,56.90
2023-04-16T13:19:38.868Z,57.70
2023-04-16T13:22:05.228Z,57.97
2023-04-16T13:24:31.558Z,58.80
2023-04-16T13:26:58.329Z,58.75
2023-04-16T13:29:25.264Z,58.49
2023-04-16T13:31:51.962Z,59.58
2023-04-16T13:34:18.367Z,58.93
2023-04-16T13:36:45.257Z,58.87
2023-04-16T13:39:12.062Z,58.50
2023-04-16T13:41:38.576Z,59.18
2023-04-16T13:44:04.916Z,58.87
2023-04-16T13:46:31.426Z,58.81
2023-04-16T13:48:58.511Z,59.17
2023-04-16T13:51:25.254Z,57.93
2023-04-16T13:53:51.660Z,57.09
2023-04-16T13:56:18.024Z,57.19
2023-04-16T13:58:44.392Z,57.75
2023-04-16T14:01:10.819Z,57.10
2023-04-16T14:03:39.083Z,57.41
2023-04-16T14:06:05.554Z,57.70
2023-04-16T14:08:31.878Z,57.91
2023-04-16T14:10:58.315Z,57.01
2023-04-16T14:13:24.767Z,57.84
2023-04-16T14:15:51.376Z,57.75
2023-04-16T14:18:17.747Z,57.27
2023-04-16T14:20:44.126Z,56.78
2023-04-16T14:23:12.378Z,57.45
2023-04-16T14:25:38.740Z,57.83
2023-04-16T14:28:05.126Z,57.12
2023-04-16T14:30:31.605Z,57.14
2023-04-16T14:32:58.016Z,56.51
2023-04-16T14:35:24.455Z,56.65
2023-04-16T14:37:50.886Z,56.47
2023-04-16T14:40:17.485Z,57.34
2023-04-16T14:42:43.929Z,56.82
2023-04-16T14:45:11.043Z,56.25
2023-04-16T14:47:38.132Z,56.68
2023-04-16T14:50:05.445Z,56.86
2023-04-16T14:52:31.906Z,56.20
2023-04-16T14:54:58.584Z,56.99
2023-04-16T14:57:25.009Z,56.92
2023-04-16T14:59:51.386Z,57.00
2023-04-16T15:02:17.958Z,56.18
2023-04-16T15:04:50.926Z,57.06
2023-04-16T15:07:27.289Z,55.71
2023-04-16T15:10:01.226Z,56.80
2023-04-16T15:12:33.180Z,56.28
2023-04-16T15:15:03.584Z,55.54
2023-04-16T15:17:31.122Z,56.62
2023-04-16T15:19:58.451Z,56.71
2023-04-16T15:22:29.442Z,56.03
2023-04-16T15:25:04.810Z,55.25
2023-04-16T15:27:34.096Z,55.43
2023-04-16T15:30:05.360Z,55.50
2023-04-16T15:32:42.020Z,55.16
2023-04-16T15:35:11.156Z,54.39
2023-04-16T15:37:38.832Z,54.37
2023-04-16T15:40:06.056Z,54.37
2023-04-16T15:42:32.479Z,55.22
2023-04-16T15:44:58.900Z,55.09
2023-04-16T15:47:25.343Z,55.76
2023-04-16T15:49:51.740Z,55.70
2023-04-16T15:52:19.855Z,55.43
2023-04-16T15:54:46.361Z,54.96
2023-04-16T15:57:12.714Z,55.64
2023-04-16T15:59:39.071Z,54.32
2023-04-16T16:02:05.936Z,54.67
2023-04-16T16:04:32.553Z,55.20
2023-04-16T16:06:58.998Z,55.47
2023-04-16T16:09:28.419Z,56.04
2023-04-16T16:11:54.866Z,62.58
2023-04-16T16:14:21.311Z,67.20
2023-04-16T16:16:47.977Z,69.01
2023-04-16T16:19:14.501Z,68.39
2023-04-16T16:21:40.991Z,68.90
2023-04-16T16:24:07.670Z,69.06
2023-04-16T16:26:34.100Z,70.13
2023-04-16T16:29:01.415Z,70.48
2023-04-16T16:31:27.990Z,69.64
2023-04-16T16:33:54.710Z,69.46
2023-04-16T16:36:21.408Z,69.96
2023-04-16T16:38:48.317Z,70.98
2023-04-16T16:41:14.661Z,71.17
2023-04-16T16:43:41.031Z,70.01
2023-04-16T16:46:07.568Z,69.68
2023-04-16T16:48:34.021Z,71.01
2023-04-16T16:51:00.683Z,72.55
2023-04-16T16:53:27.372Z,73.34
2023-04-16T16:55:53.759Z,74.12
2023-04-16T16:58:20.887Z,73.13
2023-04-16T17:00:47.428Z,74.16
2023-04-16T17:03:14.074Z,73.86
2023-04-16T17:05:40.602Z,73.00
2023-04-16T17:08:07.100Z,75.31
2023-04-16T17:10:33.508Z,75.13
2023-04-16T17:12:59.898Z,76.20
2023-04-16T17:15:26.428Z,76.22
2023-04-16T17:17:52.821Z,73.79
2023-04-16T17:20:19.985Z,74.10
2023-04-16T17:22:46.400Z,74.61
2023-04-16T17:25:12.944Z,73.66
2023-04-16T17:27:39.365Z,75.95
2023-04-16T17:30:05.994Z,75.40
2023-04-16T17:32:32.543Z,76.17
2023-04-16T17:34:59.130Z,75.97
2023-04-16T17:37:26.222Z,75.46
2023-04-16T17:39:52.825Z,75.82
2023-04-16T17:42:19.319Z,74.86
2023-04-16T17:44:45.881Z,75.66
2023-04-16T17:47:12.261Z,73.13
2023-04-16T17:49:38.663Z,73.54
2023-04-16T17:52:05.252Z,75.23
2023-04-16T17:54:31.687Z,74.03
2023-04-16T17:56:58.201Z,74.85
2023-04-16T17:59:24.670Z,75.83
2023-04-16T18:01:51.783Z,75.14
2023-04-16T18:04:18.796Z,73.17
2023-04-16T18:06:45.705Z,73.91
2023-04-16T18:09:12.272Z,75.23
2023-04-16T18:11:38.793Z,74.62
2023-04-16T18:14:05.267Z,75.67
2023-04-16T18:16:31.673Z,75.61
2023-04-16T18:18:58.298Z,75.00
2023-04-16T18:21:24.751Z,73.21
2023-04-16T18:23:51.761Z,73.83
2023-04-16T18:26:21.139Z,73.57
2023-04-16T18:28:50.349Z,72.81
2023-04-16T18:31:19.065Z,73.16
2023-04-16T18:33:56.458Z,74.05
2023-04-16T18:36:24.266Z,72.50
2023-04-16T18:39:00.901Z,72.09
2023-04-16T18:41:28.740Z,72.65
2023-04-16T18:43:55.358Z,72.61
2023-04-16T18:46:21.812Z,71.19
2023-04-16T18:48:48.300Z,71.70
2023-04-16T18:51:16.473Z,72.55
2023-04-16T18:53:45.230Z,71.71
2023-04-16T18:56:11.931Z,72.25
2023-04-16T18:58:38.550Z,72.46
2023-04-16T19:01:07.986Z,72.26
2023-04-16T19:03:34.967Z,72.78
2023-04-16T19:06:01.579Z,71.68
2023-04-16T19:08:28.287Z,73.46
2023-04-16T19:10:54.608Z,73.15
2023-04-16T19:13:20.986Z,72.55
2023-04-16T19:15:47.429Z,72.36
2023-04-16T19:18:13.877Z,72.30
2023-04-16T19:20:40.422Z,71.63
2023-04-16T19:23:08.864Z,71.81
2023-04-16T19:25:35.259Z,70.59
2023-04-16T19:28:01.769Z,71.41
2023-04-16T19:30:28.947Z,71.68
2023-04-16T19:32:56.338Z,71.74
2023-04-16T19:35:22.884Z,72.36
2023-04-16T19:37:49.458Z,72.73
2023-04-16T19:40:15.923Z,73.98
2023-04-16T19:42:45.152Z,71.75
2023-04-16T19:45:11.590Z,72.49
2023-04-16T19:47:38.688Z,72.69
2023-04-16T19:50:05.754Z,74.58
2023-04-16T19:52:37.412Z,73.84
2023-04-16T19:55:03.826Z,72.00
2023-04-16T19:57:30.571Z,73.42
2023-04-16T19:59:57.326Z,73.50
2023-04-16T20:02:23.782Z,74.63
2023-04-16T20:04:50.794Z,73.92
2023-04-16T20:07:17.501Z,73.89
2023-04-16T20:09:43.853Z,73.78
2023-04-16T20:12:10.488Z,73.54
2023-04-16T20:14:37.105Z,75.05
2023-04-16T20:17:03.723Z,73.53
2023-04-16T20:19:31.708Z,75.61
2023-04-16T20:21:58.150Z,75.86
2023-04-16T20:24:24.795Z,75.37
2023-04-16T20:26:51.148Z,75.47
2023-04-16T20:29:17.574Z,75.39
2023-04-16T20:31:45.847Z,75.92
2023-04-16T20:34:12.206Z,75.23
2023-04-16T20:36:38.601Z,76.34
2023-04-16T20:39:07.211Z,75.71
2023-04-16T20:41:33.968Z,74.99
2023-04-16T20:44:05.209Z,78.19
2023-04-16T20:46:34.144Z,79.02
2023-04-16T20:49:03.650Z,79.63
2023-04-16T20:51:30.020Z,78.17
2023-04-16T20:53:56.412Z,78.08
2023-04-16T20:56:22.770Z,78.00
2023-04-16T20:58:49.196Z,78.47
2023-04-16T21:01:16.293Z,79.73
2023-04-16T21:03:42.994Z,78.69
2023-04-16T21:06:09.461Z,77.80
2023-04-16T21:08:35.851Z,77.72
2023-04-16T21:11:02.209Z,77.77
2023-04-16T21:13:28.619Z,76.70
2023-04-16T21:15:55.194Z,77.97
2023-04-16T21:18:21.697Z,78.53
2023-04-16T21:20:48.120Z,78.38
2023-04-16T21:23:14.568Z,78.79
2023-04-16T21:25:41.058Z,78.81
2023-04-16T21:28:07.823Z,77.92
2023-04-16T21:30:34.473Z,78.63
2023-04-16T21:33:01.064Z,80.04
2023-04-16T21:35:27.482Z,80.36
2023-04-16T21:37:53.843Z,79.53
2023-04-16T21:40:20.389Z,79.45
2023-04-16T21:42:47.390Z,79.83
2023-04-16T21:45:14.619Z,80.46
2023-04-16T21:47:41.182Z,79.50
2023-04-16T21:50:07.586Z,80.52
2023-04-16T21:52:34.054Z,79.42
2023-04-16T21:55:03.954Z,80.40
2023-04-16T21:57:32.668Z,79.47
2023-04-16T21:59:59.658Z,81.82
2023-04-16T22:02:26.411Z,81.73
2023-04-16T22:04:52.854Z,79.84
2023-04-16T22:07:23.256Z,78.95
2023-04-16T22:09:50.224Z,80.14
2023-04-16T22:12:16.882Z,81.03
2023-04-16T22:14:52.162Z,80.93
2023-04-16T22:17:24.945Z,80.21
2023-04-16T22:19:53.393Z,79.87
2023-04-16T22:22:21.621Z,79.43
2023-04-16T22:24:51.889Z,80.12
2023-04-16T22:27:21.065Z,80.94
2023-04-16T22:29:50.735Z,80.78
2023-04-16T22:32:17.416Z,81.33
2023-04-16T22:34:44.126Z,79.84
2023-04-16T22:37:11.398Z,80.84
2023-04-16T22:39:37.761Z,80.55
2023-04-16T22:42:04.120Z,80.50
2023-04-16T22:44:30.666Z,81.20
2023-04-16T22:46:57.195Z,81.59
2023-04-16T22:49:23.571Z,80.72
2023-04-16T22:51:50.170Z,80.63
2023-04-16T22:54:16.534Z,81.62
2023-04-16T22:56:45.546Z,82.67
2023-04-16T22:59:15.156Z,82.21
2023-04-16T23:01:42.675Z,81.56
2023-04-16T23:04:09.191Z,79.71
2023-04-16T23:06:35.561Z,80.71
2023-04-16T23:09:04.810Z,81.90
2023-04-16T23:11:34.262Z,82.45
2023-04-16T23:14:02.449Z,81.72
2023-04-16T23:16:28.909Z,81.36
2023-04-16T23:18:57.843Z,82.00
2023-04-16T23:21:24.252Z,80.62
2023-04-16T23:23:53.527Z,80.71
2023-04-16T23:26:22.937Z,80.90
2023-04-16T23:28:52.334Z,79.53
2023-04-16T23:31:18.774Z,80.21
2023-04-16T23:33:45.212Z,80.67
2023-04-16T23:36:11.553Z,81.16
2023-04-16T23:38:37.956Z,81.11
2023-04-16T23:41:04.367Z,80.65
2023-04-16T23:43:30.816Z,81.19
2023-04-16T23:45:59.643Z,80.82
2023-04-16T23:48:28.672Z,79.39
2023-04-16T23:50:57.512Z,80.38
2023-04-16T23:53:23.906Z,80.07
2023-04-16T23:55:50.502Z,78.90
2023-04-16T23:58:19.782Z,79.98
